Time,TemperatureF,DewpointF,PressureIn,WindDirection,WindDirectionDegrees,WindSpeedMPH,WindSpeedGustMPH,Humidity,HourlyPrecipIn,Conditions,Clouds,dailyrainin,SoftwareType,DateUTC
2013-09-23 00:04:00,65.2,64.0,29.88,ENE,74,0.0,0.0,96,0.00,,,0.00,weatherlink.com 1.10,2013-09-23 04:04:00,
2013-09-23 00:19:00,64.9,64.0,29.89,ESE,120,0.0,1.0,96,0.00,,,0.00,weatherlink.com 1.10,2013-09-23 04:19:00,
2013-09-23 00:34:00,64.7,64.0,29.88,ESE,120,0.0,1.0,97,0.00,,,0.00,weatherlink.com 1.10,2013-09-23 04:34:00,
2013-09-23 00:49:00,64.3,64.0,29.88,ESE,120,0.0,0.0,97,0.00,,,0.00,weatherlink.com 1.10,2013-09-23 04:49:00,
2013-09-23 01:04:00,64.1,63.0,29.89,ESE,120,0.0,0.0,97,0.00,,,0.00,weatherlink.com 1.10,2013-09-23 05:04:00,
2013-09-23 01:19:00,63.9,63.0,29.89,ESE,120,0.0,1.0,97,0.00,,,0.00,weatherlink.com 1.10,2013-09-23 05:19:00,
2013-09-23 01:34:00,63.8,63.0,29.88,ESE,120,0.0,1.0,98,0.00,,,0.00,weatherlink.com 1.10,2013-09-23 05:34:00,
2013-09-23 01:50:00,63.6,63.0,29.89,ESE,120,0.0,1.0,98,0.00,,,0.00,weatherlink.com 1.10,2013-09-23 05:50:00,
2013-09-23 02:05:00,63.2,63.0,29.89,ESE,120,0.0,0.0,98,0.00,,,0.00,weatherlink.com 1.10,2013-09-23 06:05:00,
2013-09-23 02:20:00,62.9,62.0,29.89,ESE,120,0.0,1.0,98,0.00,,,0.00,weatherlink.com 1.10,2013-09-23 06:20:00,
2013-09-23 02:35:00,62.8,62.0,29.89,ESE,120,0.0,0.0,98,0.00,,,0.00,weatherlink.com 1.10,2013-09-23 06:35:00,
2013-09-23 02:50:00,62.6,62.0,29.90,ESE,120,0.0,0.0,98,0.00,,,0.00,weatherlink.com 1.10,2013-09-23 06:50:00,
2013-09-23 03:05:00,62.5,62.0,29.89,SW,228,0.0,1.0,98,0.00,,,0.00,weatherlink.com 1.10,2013-09-23 07:05:00,
2013-09-23 03:20:00,62.6,62.0,29.90,SSW,211,0.0,1.0,98,0.00,,,0.00,weatherlink.com 1.10,2013-09-23 07:20:00,
2013-09-23 03:35:00,62.5,62.0,29.90,SSW,211,0.0,1.0,98,0.00,,,0.00,weatherlink.com 1.10,2013-09-23 07:35:00,
2013-09-23 03:50:00,62.6,62.0,29.90,WSW,254,0.0,0.0,98,0.00,,,0.00,weatherlink.com 1.10,2013-09-23 07:50:00,
2013-09-23 04:05:00,62.3,62.0,29.91,WSW,253,0.0,1.0,98,0.00,,,0.00,weatherlink.com 1.10,2013-09-23 08:05:00,
2013-09-23 04:20:00,62.2,62.0,29.91,South,174,0.0,1.0,99,0.00,,,0.00,weatherlink.com 1.10,2013-09-23 08:20:00,
2013-09-23 04:35:00,61.8,61.0,29.92,South,174,0.0,1.0,98,0.00,,,0.00,weatherlink.com 1.10,2013-09-23 08:35:00,
2013-09-23 04:50:00,61.5,61.0,29.91,South,174,0.0,1.0,98,0.00,,,0.00,weatherlink.com 1.10,2013-09-23 08:50:00,
2013-09-23 05:05:00,61.3,61.0,29.92,South,174,0.0,1.0,99,0.00,,,0.00,weatherlink.com 1.10,2013-09-23 09:05:00,
2013-09-23 05:20:00,60.8,60.0,29.92,South,174,0.0,0.0,98,0.00,,,0.00,weatherlink.com 1.10,2013-09-23 09:20:00,
2013-09-23 05:35:00,60.4,60.0,29.93,South,174,0.0,0.0,99,0.00,,,0.00,weatherlink.com 1.10,2013-09-23 09:35:00,
2013-09-23 05:50:00,60.1,60.0,29.93,South,174,0.0,0.0,99,0.00,,,0.00,weatherlink.com 1.10,2013-09-23 09:50:00,
2013-09-23 06:05:00,59.8,60.0,29.93,South,174,0.0,1.0,99,0.00,,,0.00,weatherlink.com 1.10,2013-09-23 10:05:00,
2013-09-23 06:20:00,59.4,59.0,29.94,South,174,0.0,1.0,99,0.00,,,0.00,weatherlink.com 1.10,2013-09-23 10:20:00,
2013-09-23 06:36:00,59.1,59.0,29.95,South,174,0.0,1.0,99,0.00,,,0.00,weatherlink.com 1.10,2013-09-23 10:36:00,
2013-09-23 06:50:00,59.0,59.0,29.95,South,174,0.0,1.0,99,0.00,,,0.00,weatherlink.com 1.10,2013-09-23 10:50:00,
2013-09-23 07:05:00,58.7,59.0,29.96,South,174,0.0,0.0,99,0.00,,,0.00,weatherlink.com 1.10,2013-09-23 11:05:00,
2013-09-23 07:20:00,58.4,58.0,29.97,South,174,0.0,1.0,99,0.00,,,0.00,weatherlink.com 1.10,2013-09-23 11:20:00,
2013-09-23 07:35:00,58.8,59.0,29.97,South,174,0.0,0.0,99,0.00,,,0.00,weatherlink.com 1.10,2013-09-23 11:35:00,
2013-09-23 07:50:00,59.8,60.0,29.98,South,175,0.0,1.0,99,0.00,,,0.00,weatherlink.com 1.10,2013-09-23 11:50:00,
2013-09-23 08:05:00,60.8,61.0,29.98,South,174,0.0,1.0,99,0.00,,,0.00,weatherlink.com 1.10,2013-09-23 12:05:00,
2013-09-23 08:20:00,62.0,62.0,29.98,SSE,158,0.0,1.0,99,0.00,,,0.00,weatherlink.com 1.10,2013-09-23 12:20:00,
2013-09-23 08:35:00,63.2,63.0,29.99,WSW,249,0.0,1.0,99,0.00,,,0.00,weatherlink.com 1.10,2013-09-23 12:35:00,
2013-09-23 08:50:00,64.6,64.0,30.00,East,89,1.0,1.0,99,0.00,,,0.00,weatherlink.com 1.10,2013-09-23 12:50:00,
2013-09-23 09:05:00,66.2,66.0,30.00,West,260,0.0,3.0,98,0.00,,,0.00,weatherlink.com 1.10,2013-09-23 13:05:00,
2013-09-23 09:20:00,67.8,65.0,30.01,NE,36,1.0,7.0,89,0.00,,,0.00,weatherlink.com 1.10,2013-09-23 13:20:00,
2013-09-23 09:36:00,69.9,64.0,30.01,SE,129,3.0,5.0,82,0.00,,,0.00,weatherlink.com 1.10,2013-09-23 13:36:00,
2013-09-23 09:51:00,70.4,63.0,30.01,East,100,4.0,10.0,78,0.00,,,0.00,weatherlink.com 1.10,2013-09-23 13:51:00,
2013-09-23 10:06:00,71.4,64.0,30.01,ENE,58,1.0,9.0,76,0.00,,,0.00,weatherlink.com 1.10,2013-09-23 14:06:00,
2013-09-23 10:21:00,72.5,62.0,30.01,NNE,25,4.0,6.0,70,0.00,,,0.00,weatherlink.com 1.10,2013-09-23 14:21:00,
2013-09-23 10:36:00,72.2,64.0,30.02,ESE,102,8.0,10.0,74,0.00,,,0.00,weatherlink.com 1.10,2013-09-23 14:36:00,
2013-09-23 10:51:00,71.6,64.0,30.02,ENE,67,4.0,11.0,76,0.00,,,0.00,weatherlink.com 1.10,2013-09-23 14:51:00,
2013-09-23 11:06:00,72.4,63.0,30.02,ESE,118,3.0,9.0,73,0.00,,,0.00,weatherlink.com 1.10,2013-09-23 15:06:00,
2013-09-23 11:21:00,72.4,63.0,30.03,NNE,15,2.0,13.0,72,0.00,,,0.00,weatherlink.com 1.10,2013-09-23 15:21:00,
2013-09-23 11:36:00,73.3,63.0,30.03,East,86,9.0,9.0,70,0.00,,,0.00,weatherlink.com 1.10,2013-09-23 15:36:00,
2013-09-23 11:51:00,73.2,63.0,30.04,WNW,302,1.0,11.0,71,0.00,,,0.00,weatherlink.com 1.10,2013-09-23 15:51:00,
2013-09-23 12:06:00,74.2,63.0,30.04,NNE,33,1.0,7.0,68,0.00,,,0.00,weatherlink.com 1.10,2013-09-23 16:06:00,
2013-09-23 12:21:00,73.2,61.0,30.04,NE,43,6.0,13.0,66,0.00,,,0.00,weatherlink.com 1.10,2013-09-23 16:21:00,
2013-09-23 12:36:00,73.1,61.0,30.04,East,95,8.0,11.0,67,0.00,,,0.00,weatherlink.com 1.10,2013-09-23 16:36:00,
2013-09-23 12:51:00,74.0,60.0,30.03,East,93,3.0,11.0,62,0.00,,,0.00,weatherlink.com 1.10,2013-09-23 16:51:00,
2013-09-23 13:06:00,75.0,61.0,30.03,ENE,70,3.0,9.0,61,0.00,,,0.00,weatherlink.com 1.10,2013-09-23 17:06:00,
2013-09-23 13:21:00,74.2,60.0,30.03,ESE,106,2.0,11.0,62,0.00,,,0.00,weatherlink.com 1.10,2013-09-23 17:21:00,
2013-09-23 13:36:00,74.8,61.0,30.02,East,82,6.0,9.0,62,0.00,,,0.00,weatherlink.com 1.10,2013-09-23 17:36:00,
2013-09-23 13:51:00,74.6,60.0,30.02,East,96,11.0,11.0,60,0.00,,,0.00,weatherlink.com 1.10,2013-09-23 17:51:00,
2013-09-23 14:06:00,74.7,61.0,30.02,NNW,333,3.0,9.0,62,0.00,,,0.00,weatherlink.com 1.10,2013-09-23 18:06:00,
2013-09-23 14:21:00,75.0,61.0,30.02,NNE,25,4.0,8.0,62,0.00,,,0.00,weatherlink.com 1.10,2013-09-23 18:21:00,
2013-09-23 14:36:00,75.1,61.0,30.01,East,82,8.0,11.0,62,0.00,,,0.00,weatherlink.com 1.10,2013-09-23 18:36:00,
2013-09-23 14:51:00,74.8,61.0,30.01,ESE,104,2.0,12.0,62,0.00,,,0.00,weatherlink.com 1.10,2013-09-23 18:51:00,
2013-09-23 15:06:00,74.7,61.0,30.01,ENE,69,5.0,10.0,62,0.00,,,0.00,weatherlink.com 1.10,2013-09-23 19:06:00,
2013-09-23 15:21:00,75.3,61.0,30.00,East,95,8.0,9.0,62,0.00,,,0.00,weatherlink.com 1.10,2013-09-23 19:21:00,
2013-09-23 15:36:00,76.4,61.0,30.00,WNW,282,0.0,7.0,60,0.00,,,0.00,weatherlink.com 1.10,2013-09-23 19:36:00,
2013-09-23 15:51:00,75.2,61.0,30.01,East,82,3.0,6.0,62,0.00,,,0.00,weatherlink.com 1.10,2013-09-23 19:51:00,
2013-09-23 16:21:00,75.2,61.0,30.00,East,99,7.0,7.0,62,0.00,,,0.00,weatherlink.com 1.10,2013-09-23 20:21:00,
2013-09-23 16:36:00,74.7,62.0,30.00,NE,45,2.0,6.0,65,0.00,,,0.00,weatherlink.com 1.10,2013-09-23 20:36:00,
2013-09-23 16:51:00,74.2,62.0,30.00,East,93,3.0,9.0,65,0.00,,,0.00,weatherlink.com 1.10,2013-09-23 20:51:00,
2013-09-23 17:06:00,74.1,62.0,30.01,East,82,4.0,6.0,65,0.00,,,0.00,weatherlink.com 1.10,2013-09-23 21:06:00,
2013-09-23 17:21:00,73.9,62.0,30.01,ENE,66,1.0,9.0,66,0.00,,,0.00,weatherlink.com 1.10,2013-09-23 21:21:00,
2013-09-23 17:36:00,73.7,61.0,30.01,East,84,4.0,10.0,65,0.00,,,0.00,weatherlink.com 1.10,2013-09-23 21:36:00,
2013-09-23 17:51:00,73.4,61.0,30.01,ENE,73,2.0,8.0,65,0.00,,,0.00,weatherlink.com 1.10,2013-09-23 21:51:00,
2013-09-23 18:06:00,73.3,61.0,30.01,ENE,78,3.0,5.0,65,0.00,,,0.00,weatherlink.com 1.10,2013-09-23 22:06:00,
2013-09-23 18:21:00,72.9,61.0,30.01,East,79,5.0,7.0,67,0.00,,,0.00,weatherlink.com 1.10,2013-09-23 22:21:00,
2013-09-23 18:36:00,72.4,61.0,30.01,ENE,70,0.0,5.0,67,0.00,,,0.00,weatherlink.com 1.10,2013-09-23 22:36:00,
2013-09-23 18:51:00,71.5,61.0,30.02,East,100,1.0,1.0,70,0.00,,,0.00,weatherlink.com 1.10,2013-09-23 22:51:00,
2013-09-23 19:06:00,70.4,61.0,30.02,NE,44,0.0,3.0,72,0.00,,,0.00,weatherlink.com 1.10,2013-09-23 23:06:00,
2013-09-23 19:21:00,69.0,61.0,30.02,NE,44,0.0,0.0,76,0.00,,,0.00,weatherlink.com 1.10,2013-09-23 23:21:00,
2013-09-23 19:36:00,67.8,61.0,30.02,NE,44,0.0,1.0,79,0.00,,,0.00,weatherlink.com 1.10,2013-09-23 23:36:00,
2013-09-23 19:51:00,66.9,61.0,30.02,ESE,114,0.0,1.0,81,0.00,,,0.00,weatherlink.com 1.10,2013-09-23 23:51:00,
2013-09-23 20:21:00,65.2,60.0,30.03,ESE,112,0.0,0.0,83,0.00,,,0.00,weatherlink.com 1.10,2013-09-24 00:21:00,
2013-09-23 20:36:00,64.3,60.0,30.04,ESE,111,0.0,0.0,85,0.00,,,0.00,weatherlink.com 1.10,2013-09-24 00:36:00,
2013-09-23 20:51:00,63.5,60.0,30.04,ESE,112,0.0,0.0,87,0.00,,,0.00,weatherlink.com 1.10,2013-09-24 00:51:00,
2013-09-23 21:06:00,62.8,59.0,30.04,ESE,112,0.0,1.0,88,0.00,,,0.00,weatherlink.com 1.10,2013-09-24 01:06:00,
2013-09-23 21:21:00,62.2,59.0,30.05,ESE,112,0.0,0.0,89,0.00,,,0.00,weatherlink.com 1.10,2013-09-24 01:21:00,
2013-09-23 21:36:00,61.7,59.0,30.05,ESE,111,0.0,1.0,90,0.00,,,0.00,weatherlink.com 1.10,2013-09-24 01:36:00,
2013-09-23 21:51:00,61.4,59.0,30.05,ESE,111,0.0,0.0,90,0.00,,,0.00,weatherlink.com 1.10,2013-09-24 01:51:00,
2013-09-23 22:07:00,61.0,58.0,30.05,ESE,112,0.0,0.0,91,0.00,,,0.00,weatherlink.com 1.10,2013-09-24 02:07:00,
2013-09-23 22:22:00,60.6,58.0,30.05,ESE,111,0.0,0.0,92,0.00,,,0.00,weatherlink.com 1.10,2013-09-24 02:22:00,
2013-09-23 22:37:00,60.4,58.0,30.05,ESE,112,0.0,0.0,92,0.00,,,0.00,weatherlink.com 1.10,2013-09-24 02:37:00,
2013-09-23 22:52:00,60.4,58.0,30.06,ESE,111,0.0,0.0,93,0.00,,,0.00,weatherlink.com 1.10,2013-09-24 02:52:00,
2013-09-23 23:07:00,60.5,59.0,30.06,ESE,112,0.0,0.0,93,0.00,,,0.00,weatherlink.com 1.10,2013-09-24 03:07:00,
2013-09-23 23:22:00,60.8,59.0,30.06,ESE,111,0.0,0.0,93,0.00,,,0.00,weatherlink.com 1.10,2013-09-24 03:22:00,
2013-09-23 23:37:00,60.9,59.0,30.06,ESE,112,0.0,0.0,93,0.00,,,0.00,weatherlink.com 1.10,2013-09-24 03:37:00,
2013-09-23 23:52:00,60.8,59.0,30.06,NNE,20,0.0,0.0,93,0.00,,,0.00,weatherlink.com 1.10,2013-09-24 03:52:00,